createdAt,value
2022-12-23T00:01:18.493Z,35.30
2022-12-23T00:07:20.470Z,30.00
2022-12-23T00:13:43.377Z,33.57
2022-12-23T00:19:45.933Z,32.60
2022-12-23T00:25:48.402Z,31.03
2022-12-23T00:31:50.358Z,32.10
2022-12-23T00:37:52.310Z,33.53
2022-12-23T00:43:54.791Z,35.47
2022-12-23T00:49:57.257Z,29.03
2022-12-23T00:55:59.719Z,29.00
2022-12-23T01:02:20.405Z,27.43
2022-12-23T01:08:22.711Z,33.63
2022-12-23T01:14:26.210Z,32.23
2022-12-23T01:20:27.930Z,33.10
2022-12-23T01:26:33.149Z,34.40
2022-12-23T01:32:37.608Z,29.40
2022-12-23T01:38:40.078Z,37.23
2022-12-23T01:45:04.628Z,30.87
2022-12-23T01:51:26.831Z,33.17
2022-12-23T01:57:30.041Z,36.60
2022-12-23T02:03:46.127Z,35.03
2022-12-23T02:09:48.579Z,48.80
2022-12-23T02:16:19.212Z,41.13
2022-12-23T02:22:44.715Z,44.43
2022-12-23T02:29:20.353Z,37.97
2022-12-23T02:35:30.797Z,33.77
2022-12-23T02:41:32.513Z,37.13
2022-12-23T02:48:03.479Z,31.07
2022-12-23T02:54:11.289Z,33.80
2022-12-23T03:00:18.783Z,41.73
2022-12-23T03:06:31.273Z,35.10
2022-12-23T03:13:01.844Z,31.90
2022-12-23T03:19:42.457Z,33.80
2022-12-23T03:26:03.990Z,33.03
2022-12-23T03:32:08.479Z,45.17
2022-12-23T03:38:14.969Z,34.13
2022-12-23T03:44:22.452Z,36.70
2022-12-23T03:50:26.929Z,37.77
2022-12-23T03:56:39.457Z,39.23
2022-12-23T04:03:00.145Z,37.57
2022-12-23T04:09:03.467Z,38.73
2022-12-23T04:15:12.855Z,34.83
2022-12-23T04:21:15.212Z,36.53
2022-12-23T04:27:31.948Z,33.73
2022-12-23T04:33:34.398Z,38.33
2022-12-23T04:39:37.861Z,38.50
2022-12-23T04:45:40.345Z,36.97
2022-12-23T04:51:42.770Z,31.90
2022-12-23T04:57:47.400Z,51.73
2022-12-23T05:03:49.729Z,54.73
2022-12-23T05:09:52.155Z,46.50
2022-12-23T05:15:58.103Z,46.43
2022-12-23T05:22:01.058Z,39.20
2022-12-23T05:28:03.464Z,36.40
2022-12-23T05:34:08.437Z,39.10
2022-12-23T05:40:10.581Z,53.10
2022-12-23T05:46:13.040Z,55.43
2022-12-23T05:52:16.419Z,51.10
2022-12-23T05:58:18.899Z,92.80
2022-12-23T06:04:21.419Z,70.77
2022-12-23T06:10:23.807Z,50.30
2022-12-23T06:16:28.966Z,69.90
2022-12-23T06:22:31.736Z,51.17
2022-12-23T06:28:34.207Z,74.67
2022-12-23T06:34:36.734Z,53.73
2022-12-23T06:40:39.149Z,54.43
2022-12-23T06:46:43.595Z,44.60
2022-12-23T06:52:48.264Z,49.97
2022-12-23T06:58:50.550Z,87.00
2022-12-23T07:04:53.017Z,59.50
2022-12-23T07:11:02.504Z,71.23
2022-12-23T07:17:04.988Z,59.10
2022-12-23T07:23:07.413Z,55.47
2022-12-23T07:29:09.902Z,44.97
2022-12-23T07:35:12.391Z,52.13
2022-12-23T07:41:14.772Z,52.27
2022-12-23T07:47:17.228Z,41.10
2022-12-23T07:53:18.974Z,38.43
2022-12-23T07:59:21.162Z,34.57
2022-12-23T08:05:23.764Z,38.37
2022-12-23T08:11:26.195Z,49.33
2022-12-23T08:17:31.555Z,41.27
2022-12-23T08:23:34.029Z,43.40
2022-12-23T08:29:42.282Z,43.33
2022-12-23T08:35:44.033Z,39.83
2022-12-23T08:41:49.392Z,44.43
2022-12-23T08:47:51.199Z,38.50
2022-12-23T08:54:00.600Z,39.60
2022-12-23T09:00:03.876Z,42.83
2022-12-23T09:06:15.383Z,42.00
2022-12-23T09:12:17.826Z,47.50
2022-12-23T09:18:20.283Z,45.07
2022-12-23T09:24:22.536Z,50.47
2022-12-23T09:30:25.207Z,46.43
2022-12-23T09:36:27.668Z,44.00
2022-12-23T09:42:51.217Z,44.37
2022-12-23T09:49:09.755Z,49.20
2022-12-23T09:55:14.266Z,42.47
2022-12-23T10:01:41.486Z,45.50
2022-12-23T10:07:52.498Z,41.50
2022-12-23T10:14:03.421Z,42.43
2022-12-23T10:20:16.314Z,44.10
2022-12-23T10:26:26.837Z,41.53
2022-12-23T10:32:38.383Z,46.40
2022-12-23T10:38:59.831Z,42.00
2022-12-23T10:45:15.350Z,44.40
2022-12-23T10:51:35.969Z,44.77
2022-12-23T10:57:41.385Z,43.87
2022-12-23T11:04:00.284Z,43.03
2022-12-23T11:10:24.074Z,48.87
2022-12-23T11:16:30.517Z,47.57
2022-12-23T11:22:35.436Z,47.63
2022-12-23T11:28:53.932Z,45.57
2022-12-23T11:34:56.537Z,44.33
2022-12-23T11:41:02.883Z,42.67
2022-12-23T11:47:23.435Z,42.93
2022-12-23T11:53:26.976Z,45.70
2022-12-23T11:59:34.395Z,40.77
2022-12-23T12:05:42.349Z,44.33
2022-12-23T12:12:01.138Z,45.20
2022-12-23T12:18:12.837Z,45.67
2022-12-23T12:24:31.004Z,41.07
2022-12-23T12:30:45.965Z,41.47
2022-12-23T12:37:03.405Z,41.27
2022-12-23T12:43:27.023Z,42.47
2022-12-23T12:49:46.556Z,44.73
2022-12-23T12:56:17.116Z,40.57
2022-12-23T13:02:46.974Z,43.70
2022-12-23T13:09:06.245Z,41.47
2022-12-23T13:15:25.136Z,43.93
2022-12-23T13:21:45.290Z,45.17
2022-12-23T13:27:59.796Z,43.57
2022-12-23T13:34:30.977Z,42.60
2022-12-23T13:40:41.455Z,44.23
2022-12-23T13:46:58.379Z,44.73
2022-12-23T13:53:21.967Z,41.13
2022-12-23T13:59:39.439Z,39.50
2022-12-23T14:05:47.924Z,41.57
2022-12-23T14:11:56.243Z,38.60
2022-12-23T14:18:25.059Z,37.93
2022-12-23T14:24:58.562Z,41.40
2022-12-23T14:31:04.214Z,81.13
2022-12-23T14:37:21.649Z,74.03
2022-12-23T14:43:24.080Z,52.07
2022-12-23T14:49:43.123Z,69.33
2022-12-23T14:55:47.057Z,95.57
2022-12-23T15:01:53.581Z,71.47
2022-12-23T15:07:58.029Z,77.43
2022-12-23T15:14:05.465Z,68.27
2022-12-23T15:20:10.985Z,100.73
2022-12-23T15:26:13.396Z,76.83
2022-12-23T15:32:16.885Z,84.17
2022-12-23T15:38:22.302Z,96.93
2022-12-23T15:44:27.754Z,129.30
2022-12-23T15:50:31.230Z,107.17
2022-12-23T15:56:41.446Z,87.07
2022-12-23T16:03:02.793Z,83.47
2022-12-23T16:09:14.767Z,84.50
2022-12-23T16:15:24.257Z,68.03
2022-12-23T16:21:32.487Z,70.70
2022-12-23T16:27:44.199Z,74.50
2022-12-23T16:33:52.685Z,77.63
2022-12-23T16:39:58.266Z,85.40
2022-12-23T16:46:06.762Z,120.97
2022-12-23T16:52:18.118Z,80.63
2022-12-23T16:58:20.562Z,89.93
2022-12-23T17:04:24.173Z,89.07
2022-12-23T17:10:26.871Z,85.77
2022-12-23T17:16:29.020Z,78.13
2022-12-23T17:22:34.418Z,78.67
2022-12-23T17:28:36.855Z,86.47
2022-12-23T17:34:39.325Z,98.70
2022-12-23T17:40:42.810Z,104.87
2022-12-23T17:46:47.229Z,80.03
2022-12-23T17:52:49.690Z,67.90
2022-12-23T17:58:52.183Z,84.60
2022-12-23T18:04:54.609Z,90.07
2022-12-23T18:10:59.068Z,94.67
2022-12-23T18:17:01.631Z,84.03
2022-12-23T18:23:04.057Z,104.33
2022-12-23T18:29:07.452Z,107.47
2022-12-23T18:35:26.988Z,101.97
2022-12-23T18:41:29.438Z,104.03
2022-12-23T18:47:31.888Z,63.33
2022-12-23T18:53:34.369Z,55.13
2022-12-23T18:59:38.814Z,65.27
2022-12-23T19:05:41.313Z,114.40
2022-12-23T19:11:43.617Z,92.90
2022-12-23T19:17:46.218Z,95.37
2022-12-23T19:23:48.665Z,79.10
2022-12-23T19:29:52.903Z,74.53
2022-12-23T19:35:55.730Z,69.40
2022-12-23T19:41:58.106Z,71.30
2022-12-23T19:48:00.595Z,104.13
2022-12-23T19:54:05.589Z,82.77
2022-12-23T20:00:08.391Z,74.47
2022-12-23T20:06:29.035Z,89.60
2022-12-23T20:12:39.448Z,65.27
2022-12-23T20:18:42.030Z,59.37
2022-12-23T20:24:44.449Z,62.57
2022-12-23T20:30:49.999Z,61.63
2022-12-23T20:36:52.925Z,62.03
2022-12-23T20:42:54.918Z,57.30
2022-12-23T20:48:57.373Z,61.23
2022-12-23T20:55:01.933Z,55.23
2022-12-23T21:01:12.406Z,76.13
2022-12-23T21:07:14.805Z,75.40
2022-12-23T21:13:17.245Z,59.17
2022-12-23T21:19:24.738Z,57.23
2022-12-23T21:25:27.171Z,58.17
2022-12-23T21:31:31.752Z,78.53
2022-12-23T21:37:37.120Z,77.93
2022-12-23T21:43:39.618Z,73.57
2022-12-23T21:49:43.055Z,58.40
2022-12-23T21:55:45.508Z,55.50
2022-12-23T22:01:48.000Z,78.53
2022-12-23T22:07:50.412Z,87.60
2022-12-23T22:13:52.784Z,93.07
2022-12-23T22:19:55.365Z,61.63
2022-12-23T22:25:57.829Z,85.63
2022-12-23T22:32:00.327Z,54.63
2022-12-23T22:38:02.258Z,59.03
2022-12-23T22:44:07.186Z,85.80
2022-12-23T22:50:09.306Z,66.27
2022-12-23T22:56:14.122Z,62.80
2022-12-23T23:02:16.639Z,61.00
2022-12-23T23:08:19.075Z,71.37
2022-12-23T23:14:21.553Z,64.37
2022-12-23T23:20:23.986Z,63.33
2022-12-23T23:26:28.552Z,53.37
2022-12-23T23:32:31.075Z,62.40
2022-12-23T23:38:33.432Z,49.30
2022-12-23T23:44:36.969Z,46.87
2022-12-23T23:50:40.396Z,47.50
2022-12-23T23:56:42.864Z,53.27
